EST,Max TemperatureF,Mean TemperatureF,Min TemperatureF,Max Dew PointF,MeanDew PointF,Min DewpointF,Max Humidity, Mean Humidity, Min Humidity, Max Sea Level PressureIn, Mean Sea Level PressureIn, Min Sea Level PressureIn, Max VisibilityMiles, Mean VisibilityMiles, Min VisibilityMiles, Max Wind SpeedMPH, Mean Wind SpeedMPH, Max Gust SpeedMPH,PrecipitationIn, CloudCover, Events, WindDirDegrees
2014-1-1,47,35,23,28,24,20,88,67,45,30.29,30.18,30.01,10,10,9,14,5,18,0.00,5,,188
2014-1-2,39,25,11,34,21,4,100,80,59,30.30,29.96,29.81,10,2,0,25,12,30,0.31,8,Fog-Rain-Snow,333
2014-1-3,18,11,3,7,2,-2,86,70,54,30.53,30.43,30.28,10,10,10,18,7,24,0.00,0,,250
2014-1-4,38,25,12,19,13,5,70,57,44,30.25,30.15,30.04,10,10,10,22,11,31,0.00,3,,192
2014-1-5,48,36,24,45,33,20,100,76,52,30.06,29.73,29.46,10,6,0,35,10,43,0.68,8,Rain-Snow,176
2014-1-6,24,9,-7,16,-8,-17,88,74,59,30.45,30.22,29.82,10,7,2,32,18,39,T,7,Snow,273
2014-1-7,12,3,-7,3,-7,-15,75,66,57,30.54,30.46,30.42,10,10,10,17,9,24,0.00,3,,218
2014-1-8,29,19,8,23,13,1,76,67,58,30.49,30.44,30.41,10,9,1,13,6,16,0.01,6,Snow,203
2014-1-9,37,30,23,32,27,21,96,75,54,30.51,30.40,30.29,10,6,1,22,5,25,0.06,8,Snow,145
2014-1-10,52,43,33,48,40,32,100,93,86,30.26,30.10,29.73,10,5,0,20,10,23,0.05,8,,160
2014-1-11,53,44,35,52,42,30,100,85,70,29.83,29.64,29.49,10,8,2,26,13,35,0.83,8,Rain-Thunderstorm,223
2014-1-12,46,40,33,34,30,28,89,76,62,30.07,29.96,29.82,10,8,6,18,10,23,0.00,4,,216
2014-1-13,52,47,41,48,40,30,93,72,50,29.89,29.77,29.71,10,9,3,24,12,36,0.16,8,Rain,215
2014-1-14,48,39,29,40,32,21,92,71,49,29.95,29.84,29.76,10,8,3,28,10,35,0.03,5,Fog-Rain,259
2014-1-15,31,26,20,21,19,16,91,77,63,30.11,30.04,29.95,10,7,2,21,7,26,0.01,7,Snow,274
2014-1-16,32,23,14,28,19,11,84,76,68,30.06,29.88,29.76,10,8,1,22,10,25,0.02,7,Snow,192
2014-1-17,32,21,10,31,19,3,100,80,59,30.10,29.88,29.75,10,4,1,28,10,36,0.14,7,Snow,251
2014-1-18,29,21,12,23,16,6,92,76,60,30.08,29.93,29.77,10,6,0,17,9,22,0.06,8,Fog-Snow,179
2014-1-19,36,29,22,29,24,17,92,74,56,30.00,29.85,29.74,10,8,1,22,13,30,0.01,5,Snow,247
2014-1-20,44,39,33,30,26,23,75,65,54,29.91,29.84,29.72,10,10,2,24,10,31,T,6,Snow,278
2014-1-21,33,18,2,32,14,-5,100,81,61,30.22,29.95,29.77,10,3,0,31,14,37,0.24,6,Fog-Snow,11
2014-1-22,17,5,-8,13,0,-10,95,74,53,30.22,30.13,30.02,10,7,0,14,6,18,0.03,6,Fog-Snow,207
2014-1-23,17,8,-1,10,-3,-8,80,68,55,30.66,30.40,30.06,10,8,0,18,12,23,T,4,Fog-Snow,288
2014-1-24,22,8,-6,3,-3,-9,87,64,41,30.66,30.39,29.89,10,10,10,24,12,35,0.00,4,,212
2014-1-25,34,22,10,27,15,-1,92,67,41,29.94,29.70,29.52,10,4,0,36,17,45,0.16,5,Snow,242
2014-1-26,45,26,6,30,14,-3,75,58,40,29.94,29.70,29.59,10,10,6,21,8,29,T,6,,213
2014-1-27,42,22,2,31,3,-9,74,60,45,30.45,30.10,29.61,10,10,8,40,16,49,T,6,,306
2014-1-28,9,2,-6,-8,-11,-15,79,62,45,30.51,30.44,30.38,10,10,9,13,3,16,0.00,3,,330
2014-1-29,22,8,-6,2,-3,-11,95,67,39,30.40,30.36,30.32,10,10,7,16,7,21,0.00,0,,214
2014-1-30,34,21,8,7,3,-1,69,49,28,30.30,30.14,29.96,10,10,10,23,12,30,0.00,5,,189
2014-1-31,42,38,33,22,14,7,52,42,32,30.15,30.09,30.03,10,10,10,13,6,18,0.00,8,,184